Jiu Hua San — 9VBK2 — position and weather

sailwx.info

Track history (hours):
 
Tides and Currents Weather Stations Pressure Air Temp Water Temp Dewpoint Dewpoint Depression Visibility Wind Speed Wind Dir Waves Ship Positions

Jiu Hua San

Last reported at 2016-Jan-23 05:33 UTC. Time now 2016-Feb-10 15:20 UTC.
Position N 40°13' E 121°56'.
Warning: this ship's position is 18 days out of date.

Length 333 m; draft 19.6 m.

Type: Ship. MMSI: 565914000.

Date/timePositionNaut miles runAvg speedWind from/ knotsBaromVisibWave heightAir tempDewpointWater temp
2016-Jan-23 05:33N 40°13' E 121°56'  
2016-Jan-20 03:19N 38°26' E 121°31'2211.7
2016-Jan-20 01:28N 38°19' E 121°57'  
2016-Jan-17 11:12N 29°46' E 122°40'4 6.2
2016-Jan-17 10:31N 29°44' E 122°35'0 0.1
2016-Jan-17 09:27N 29°44' E 122°35'0 0.3
2016-Jan-17 08:28N 29°44' E 122°35'3 2.5
2016-Jan-17 07:21N 29°43' E 122°38'3 1.1
2016-Jan-17 04:33N 29°41' E 122°36'0 0.2
2016-Jan-17 03:22N 29°41' E 122°36'1 1.1
2016-Jan-17 02:27N 29°42' E 122°36'2 2.6
2016-Jan-17 01:33N 29°42' E 122°39'  
Track history (hours):
 
Tides and Currents Weather Stations Pressure Air Temp Water Temp Dewpoint Dewpoint Depression Visibility Wind Speed Wind Dir Waves Ship Positions

Jiu Hua San

Last reported at 2016-Jan-23 05:33 UTC. Time now 2016-Feb-10 15:20 UTC.
Position N 40°13' E 121°56'.
Warning: this ship's position is 18 days out of date.

Length 333 m; draft 19.6 m.

Type: Ship. MMSI: 565914000.

Date/timePositionNaut miles runAvg speedWind from/ knotsBaromVisibWave heightAir tempDewpointWater temp
2016-Jan-23 05:33N 40°13' E 121°56'  
2016-Jan-20 03:19N 38°26' E 121°31'2211.7
2016-Jan-20 01:28N 38°19' E 121°57'  
2016-Jan-17 11:12N 29°46' E 122°40'4 6.2
2016-Jan-17 10:31N 29°44' E 122°35'0 0.1
2016-Jan-17 09:27N 29°44' E 122°35'0 0.3
2016-Jan-17 08:28N 29°44' E 122°35'3 2.5
2016-Jan-17 07:21N 29°43' E 122°38'3 1.1
2016-Jan-17 04:33N 29°41' E 122°36'0 0.2
2016-Jan-17 03:22N 29°41' E 122°36'1 1.1
2016-Jan-17 02:27N 29°42' E 122°36'2 2.6
2016-Jan-17 01:33N 29°42' E 122°39'  

Dump ship's entire track history